Time;durP1;ratioP1;P1;durP2;ratioP2;P2;SDS_P1;SDS_P2;PMS_P1;PMS_P2;Temp;Humidity;BMP_temperature;BMP_pressure;BME280_temperature;BME280_humidity;BME280_pressure;Samples;Min_cycle;Max_cycle;Signal;HPM_P1;HPM_P2
2022/09/20 00:00:47;;;;;;;4.80;2.57;;;;;;;12.09;100.00;101547.66;2081767;28;20933;-62
2022/09/20 00:01:48;;;;;;;5.53;2.13;;;;;;;12.31;100.00;101579.47;2081669;28;20175;-62
2022/09/20 00:02:48;;;;;;;3.00;2.40;;;;;;;12.28;100.00;101577.50;2081739;28;20422;-62
2022/09/20 00:03:52;;;;;;;3.20;2.37;;;;;;;12.25;100.00;101583.94;2081621;28;20228;-62
2022/09/20 00:04:52;;;;;;;2.73;2.40;;;;;;;12.14;100.00;101564.63;2081644;28;20233;-62
2022/09/20 00:05:53;;;;;;;2.70;2.27;;;;;;;12.23;100.00;101587.13;2081624;28;20419;-62
2022/09/20 00:06:53;;;;;;;2.33;2.13;;;;;;;12.22;100.00;101582.78;2081612;28;20564;-62
2022/09/20 00:07:53;;;;;;;4.93;2.87;;;;;;;12.19;100.00;101572.50;2081634;28;20179;-61
2022/09/20 00:08:55;;;;;;;2.47;2.27;;;;;;;12.22;100.00;101573.63;2081741;28;20189;-62
2022/09/20 00:09:56;;;;;;;2.70;2.40;;;;;;;12.23;100.00;101575.22;2081683;28;20178;-61
2022/09/20 00:11:05;;;;;;;2.37;2.17;;;;;;;12.16;100.00;101573.34;2081717;28;20444;-61
2022/09/20 00:12:06;;;;;;;2.80;2.50;;;;;;;12.08;100.00;101569.09;2081701;28;20415;-61
2022/09/20 00:13:09;;;;;;;2.50;2.27;;;;;;;11.99;100.00;101562.50;2081570;28;20521;-61
2022/09/20 00:14:10;;;;;;;2.40;2.20;;;;;;;11.94;100.00;101566.50;2081635;28;20691;-62
2022/09/20 00:15:10;;;;;;;2.63;2.20;;;;;;;11.95;100.00;101567.31;2081653;28;20794;-62
2022/09/20 00:16:14;;;;;;;2.73;2.33;;;;;;;11.97;100.00;101565.69;2081470;28;20198;-62
2022/09/20 00:17:14;;;;;;;2.63;2.43;;;;;;;11.58;100.00;101512.66;2081600;28;20175;-61
2022/09/20 00:18:15;;;;;;;2.70;2.40;;;;;;;11.94;100.00;101569.28;2081582;28;20456;-61
2022/09/20 00:19:20;;;;;;;2.70;2.33;;;;;;;11.93;100.00;101572.50;2081545;28;20179;-62
2022/09/20 00:20:21;;;;;;;3.60;2.33;;;;;;;11.93;100.00;101558.63;2081592;28;20178;-61
2022/09/20 00:21:25;;;;;;;2.97;2.40;;;;;;;11.76;100.00;101537.41;2081661;28;20511;-62
2022/09/20 00:22:26;;;;;;;2.50;2.30;;;;;;;11.87;100.00;101563.06;2081660;28;20432;-61
2022/09/20 00:23:26;;;;;;;2.83;2.40;;;;;;;11.87;100.00;101563.06;2081502;28;20983;-61
2022/09/20 00:24:27;;;;;;;2.77;2.20;;;;;;;11.85;100.00;101559.91;2081641;28;20238;-62
2022/09/20 00:25:28;;;;;;;2.57;2.37;;;;;;;11.80;100.00;101565.94;2081570;28;20207;-61
2022/09/20 00:26:29;;;;;;;2.73;2.43;;;;;;;11.86;100.00;101567.84;2081568;28;20181;-62
2022/09/20 00:27:30;;;;;;;2.90;2.50;;;;;;;11.92;100.00;101576.47;2081516;28;20456;-61
2022/09/20 00:28:31;;;;;;;2.70;2.50;;;;;;;11.92;100.00;101579.25;2081362;28;20221;-61
2022/09/20 00:29:31;;;;;;;2.70;2.50;;;;;;;11.84;100.00;101567.44;2081668;28;20193;-61
2022/09/20 00:30:33;;;;;;;3.80;2.40;;;;;;;11.91;100.00;101574.91;2081512;28;20173;-61
2022/09/20 00:31:35;;;;;;;2.80;2.50;;;;;;;11.85;100.00;101580.16;2081539;28;20180;-62
2022/09/20 00:32:36;;;;;;;3.20;2.60;;;;;;;11.86;100.00;101586.47;2081670;28;20955;-61
2022/09/20 00:35:08;;;;;;;3.47;2.73;;;;;;;11.74;100.00;101575.94;2081736;28;20176;-60
2022/09/20 00:36:09;;;;;;;3.33;2.70;;;;;;;11.83;100.00;101593.66;2081659;28;20443;-62
2022/09/20 00:37:09;;;;;;;3.80;3.10;;;;;;;11.81;100.00;101590.53;2081536;28;20495;-62
2022/09/20 00:38:12;;;;;;;3.87;2.80;;;;;;;11.81;100.00;101590.53;2081488;28;20623;-61
2022/09/20 00:39:14;;;;;;;3.20;2.90;;;;;;;11.85;100.00;101598.81;2081587;28;20562;-61
2022/09/20 00:40:20;;;;;;;3.20;2.90;;;;;;;11.73;100.00;101594.59;2090657;28;20426;-62
2022/09/20 00:41:21;;;;;;;3.53;3.10;;;;;;;11.70;100.00;101592.66;2098023;28;20416;-62
2022/09/20 00:42:27;;;;;;;3.60;3.30;;;;;;;11.69;100.00;101593.06;2094956;28;20426;-62
2022/09/20 00:43:40;;;;;;;4.80;3.40;;;;;;;11.65;100.00;101601.44;2089722;28;20165;-62
2022/09/20 00:44:44;;;;;;;3.50;3.20;;;;;;;11.68;100.00;101599.81;2089838;28;20945;-62
2022/09/20 00:45:48;;;;;;;3.97;3.57;;;;;;;11.30;100.00;101537.22;2089672;28;20418;-62
2022/09/20 00:46:49;;;;;;;4.27;3.37;;;;;;;11.76;100.00;101596.53;2089756;28;20427;-62
2022/09/20 00:48:03;;;;;;;4.00;3.30;;;;;;;11.79;100.00;101601.25;2089675;28;20418;-61
2022/09/20 00:49:17;;;;;;;3.37;3.07;;;;;;;11.61;100.00;101570.16;2089859;28;20251;-61
2022/09/20 00:50:23;;;;;;;3.50;3.20;;;;;;;11.79;100.00;101601.25;2091365;28;20406;-61
2022/09/20 00:51:30;;;;;;;3.77;3.17;;;;;;;11.84;100.00;101591.69;2091455;28;20402;-62
2022/09/20 00:52:32;;;;;;;3.47;2.90;;;;;;;11.11;100.00;101477.59;2091533;28;20514;-61
2022/09/20 00:53:38;;;;;;;4.23;3.23;;;;;;;11.87;100.00;101599.16;2091330;28;20427;-61
2022/09/20 00:54:39;;;;;;;4.03;3.03;;;;;;;11.86;100.00;101589.25;2091402;28;20791;-62
2022/09/20 00:55:44;;;;;;;3.10;2.80;;;;;;;11.81;100.00;101590.53;2091233;28;20516;-62
2022/09/20 00:56:45;;;;;;;3.50;3.20;;;;;;;11.86;100.00;101605.91;2091447;28;20626;-62
2022/09/20 00:57:46;;;;;;;3.53;3.10;;;;;;;11.87;100.00;101588.03;2091253;28;20490;-62
2022/09/20 00:58:55;;;;;;;3.40;3.10;;;;;;;11.88;100.00;101582.06;2091285;28;20355;-61
2022/09/20 00:59:55;;;;;;;3.23;2.93;;;;;;;11.84;100.00;101578.56;2091429;28;20172;-62
2022/09/20 01:00:56;;;;;;;3.50;3.03;;;;;;;11.85;100.00;101591.25;2091255;28;20450;-62
2022/09/20 01:02:04;;;;;;;3.67;3.10;;;;;;;11.79;100.00;101583.81;2091268;28;20186;-62
2022/09/20 01:03:08;;;;;;;4.30;3.00;;;;;;;11.00;100.00;101456.72;2093669;28;20442;-61
2022/09/20 01:04:10;;;;;;;3.47;3.17;;;;;;;11.87;100.00;101574.16;2099495;28;20417;-61
2022/09/20 01:05:13;;;;;;;3.37;3.07;;;;;;;11.88;100.00;101570.19;2099478;28;20409;-61
2022/09/20 01:06:15;;;;;;;4.00;3.10;;;;;;;11.89;100.00;101580.09;2099480;28;20417;-61
2022/09/20 01:07:21;;;;;;;3.30;3.00;;;;;;;11.92;100.00;101571.72;2099504;28;20454;-62
2022/09/20 01:08:24;;;;;;;3.73;3.00;;;;;;;11.83;100.00;101559.56;2098846;28;20428;-61
2022/09/20 01:09:24;;;;;;;3.70;3.30;;;;;;;12.01;100.00;101579.53;2098854;28;20457;-62
2022/09/20 01:10:25;;;;;;;3.50;3.20;;;;;;;11.56;100.00;101528.16;2099446;28;20421;-61
2022/09/20 01:11:25;;;;;;;3.60;3.20;;;;;;;11.91;100.00;101584.03;2099469;28;20629;-61
2022/09/20 01:12:31;;;;;;;3.90;3.30;;;;;;;11.37;100.00;101507.38;2099454;28;20199;-61
2022/09/20 01:13:31;;;;;;;3.83;3.33;;;;;;;11.89;100.00;101583.66;2099592;28;20156;-61
2022/09/20 01:14:32;;;;;;;3.40;3.10;;;;;;;11.91;100.00;101583.22;2099427;28;20445;-62
2022/09/20 01:15:36;;;;;;;3.87;3.47;;;;;;;11.97;100.00;101579.56;2098647;28;20226;-61
2022/09/20 01:16:36;;;;;;;4.27;3.73;;;;;;;11.93;100.00;101586.41;2098845;28;20417;-61
2022/09/20 01:17:41;;;;;;;3.47;3.17;;;;;;;11.96;100.00;101585.53;2099453;28;20926;-62
2022/09/20 01:18:43;;;;;;;4.33;3.53;;;;;;;11.98;100.00;101583.13;2091936;28;20180;-62
2022/09/20 01:19:47;;;;;;;4.33;3.37;;;;;;;11.96;100.00;101582.75;2091354;28;20505;-62
2022/09/20 01:20:49;;;;;;;4.50;3.63;;;;;;;11.98;100.00;101581.13;2091119;28;20919;-62
2022/09/20 01:21:51;;;;;;;4.20;3.33;;;;;;;11.82;100.00;101564.31;2091103;28;20857;-62
2022/09/20 01:23:13;;;;;;;4.30;3.67;;;;;;;12.06;100.00;101584.59;2091135;28;20421;-61
2022/09/20 01:24:40;;;;;;;5.30;4.00;;;;;;;12.07;100.00;101575.84;2091126;28;20409;-61
2022/09/20 01:26:02;;;;;;;4.40;3.40;;;;;;;12.13;100.00;101585.28;2092699;28;20458;-62
2022/09/20 01:27:27;;;;;;;3.87;3.40;;;;;;;12.14;100.00;101578.50;2091106;28;20403;-62
2022/09/20 01:28:28;;;;;;;4.40;3.47;;;;;;;12.09;100.00;101570.66;2090961;28;20470;-61
2022/09/20 01:29:37;;;;;;;4.83;3.90;;;;;;;12.10;100.00;101582.56;2091301;28;20496;-61
2022/09/20 01:30:44;;;;;;;4.20;3.57;;;;;;;11.41;100.00;101465.69;2091290;28;20886;-61
2022/09/20 01:31:58;;;;;;;4.70;3.60;;;;;;;12.13;100.00;101578.94;2091050;28;20415;-61
2022/09/20 01:33:30;;;;;;;5.10;3.23;;;;;;;12.14;100.00;101580.53;2091110;28;20395;-62
2022/09/20 01:34:35;;;;;;;4.87;3.60;;;;;;;12.08;100.00;101562.72;2091056;28;20403;-61
2022/09/20 01:35:40;;;;;;;3.90;3.50;;;;;;;12.08;100.00;101571.88;2090923;28;20891;-61
2022/09/20 01:36:43;;;;;;;4.93;3.77;;;;;;;12.02;100.00;101561.63;2094313;28;20417;-61
2022/09/20 01:38:02;;;;;;;4.40;3.80;;;;;;;12.03;100.00;101569.56;2099281;28;20410;-62
2022/09/20 01:39:27;;;;;;;5.17;3.63;;;;;;;12.05;100.00;101564.34;2099244;28;20785;-61
2022/09/20 01:40:50;;;;;;;3.90;3.50;;;;;;;12.07;100.00;101566.72;2099240;28;20410;-62
2022/09/20 01:42:17;;;;;;;5.30;3.20;;;;;;;12.06;100.00;101562.38;2099389;28;20907;-62
2022/09/20 01:43:44;;;;;;;3.83;3.43;;;;;;;12.05;100.00;101567.13;2098810;28;20927;-62
2022/09/20 01:44:47;;;;;;;3.80;3.40;;;;;;;12.08;100.00;101559.97;2099168;28;20849;-62
2022/09/20 01:45:49;;;;;;;3.33;3.03;;;;;;;12.00;100.00;101562.06;2099200;28;20586;-61
2022/09/20 01:46:57;;;;;;;3.90;3.50;;;;;;;11.98;100.00;101561.69;2099151;28;20456;-61
2022/09/20 01:48:17;;;;;;;3.93;3.30;;;;;;;12.01;100.00;101560.88;2099222;28;20405;-62
2022/09/20 01:49:58;;;;;;;5.73;3.57;;;;;;;12.04;100.00;101557.22;2099185;28;20387;-62
2022/09/20 01:51:34;;;;;;;5.87;3.30;;;;;;;12.03;100.00;101560.44;2098287;28;20420;-62
2022/09/20 01:52:37;;;;;;;3.70;3.27;;;;;;;12.05;100.00;101564.34;2099380;28;20394;-62
2022/09/20 01:54:19;;;;;;;4.53;3.40;;;;;;;12.10;100.00;101550.00;2099077;28;20958;-62
2022/09/20 01:55:37;;;;;;;3.97;2.93;;;;;;;12.14;100.00;101559.06;2098831;28;20422;-62
2022/09/20 01:56:52;;;;;;;4.53;3.17;;;;;;;12.14;100.00;101561.84;2099123;28;20764;-62
2022/09/20 01:58:28;;;;;;;3.93;3.23;;;;;;;12.13;100.00;101563.06;2099282;28;20398;-61
2022/09/20 01:59:55;;;;;;;5.23;3.40;;;;;;;12.06;100.00;101559.59;2098244;28;20432;-62
2022/09/20 02:01:20;;;;;;;3.93;2.90;;;;;;;12.17;100.00;101565.78;2098974;28;20455;-62
2022/09/20 02:02:32;;;;;;;4.33;3.00;;;;;;;12.08;100.00;101565.50;2099084;28;20394;-62
2022/09/20 02:03:45;;;;;;;3.63;3.07;;;;;;;12.12;100.00;101557.91;2099063;28;20449;-61
2022/09/20 02:05:23;;;;;;;4.60;3.27;;;;;;;12.12;100.00;101561.50;2092712;28;20506;-61
2022/09/20 02:06:33;;;;;;;3.97;3.57;;;;;;;12.12;100.00;101552.34;2090785;28;20764;-62
2022/09/20 02:08:02;;;;;;;3.90;2.93;;;;;;;12.19;100.00;101555.03;2090871;28;20403;-62
2022/09/20 02:09:31;;;;;;;3.63;3.00;;;;;;;12.19;100.00;101558.59;2090131;28;20808;-61
2022/09/20 02:10:58;;;;;;;3.30;3.00;;;;;;;12.16;100.00;101550.31;2090921;28;20404;-62
2022/09/20 02:12:31;;;;;;;3.80;3.10;;;;;;;12.25;100.00;101556.13;2090842;28;20395;-61
2022/09/20 02:13:38;;;;;;;3.37;2.90;;;;;;;12.25;100.00;101559.69;2090756;28;20869;-62
2022/09/20 02:14:58;;;;;;;4.13;2.77;;;;;;;12.23;100.00;101545.44;2090779;28;20823;-61
2022/09/20 02:16:01;;;;;;;3.63;3.17;;;;;;;12.31;100.00;101555.25;2090687;28;20836;-61
2022/09/20 02:17:21;;;;;;;4.03;3.30;;;;;;;11.78;100.00;101474.69;2090631;28;20481;-62
2022/09/20 02:18:57;;;;;;;4.73;2.90;;;;;;;12.38;100.00;101555.13;2090658;28;20395;-62
2022/09/20 02:20:16;;;;;;;3.37;2.90;;;;;;;12.42;100.00;101555.06;2089704;28;20449;-61
2022/09/20 02:21:29;;;;;;;2.90;2.50;;;;;;;12.43;100.00;101560.19;2089947;28;20414;-62
2022/09/20 02:23:10;;;;;;;2.90;2.60;;;;;;;12.47;100.00;101554.56;2090229;28;20801;-62
2022/09/20 02:24:13;;;;;;;4.53;2.50;;;;;;;12.49;100.00;101552.16;2090612;28;20410;-62
2022/09/20 02:25:31;;;;;;;3.70;2.70;;;;;;;12.37;100.00;101539.66;2090614;28;20827;-62
2022/09/20 02:26:40;;;;;;;2.77;2.50;;;;;;;12.53;100.00;101555.66;2090703;28;20905;-62
2022/09/20 02:28:08;;;;;;;5.23;2.93;;;;;;;12.53;100.00;101555.66;2090724;28;20403;-62
2022/09/20 02:29:34;;;;;;;4.33;2.80;;;;;;;12.50;100.00;101557.28;2090600;28;20425;-61
2022/09/20 02:30:41;;;;;;;4.13;2.93;;;;;;;12.47;100.00;101549.00;2090302;28;20423;-62
2022/09/20 02:32:14;;;;;;;3.33;2.53;;;;;;;12.49;100.00;101549.38;2090684;28;20422;-61
2022/09/20 02:33:33;;;;;;;4.57;2.77;;;;;;;12.48;100.00;101547.78;2090675;28;20415;-61
2022/09/20 02:34:55;;;;;;;3.37;2.70;;;;;;;12.47;100.00;101543.44;2090553;28;20407;-62
2022/09/20 02:36:04;;;;;;;4.40;2.70;;;;;;;12.40;100.00;101540.81;2090522;28;20478;-62
2022/09/20 02:37:13;;;;;;;3.77;2.67;;;;;;;12.37;100.00;101544.41;2090638;28;20400;-62
2022/09/20 02:38:40;;;;;;;3.87;2.97;;;;;;;12.33;100.00;101546.47;2090593;28;20415;-61
2022/09/20 02:40:08;;;;;;;3.70;2.93;;;;;;;12.34;100.00;101548.06;2089934;28;20978;-62
2022/09/20 02:41:27;;;;;;;4.27;2.80;;;;;;;12.32;100.00;101548.47;2090584;28;20392;-62
2022/09/20 02:42:35;;;;;;;6.00;2.60;;;;;;;12.28;100.00;101550.50;2090509;28;20486;-62
2022/09/20 02:44:13;;;;;;;3.23;2.80;;;;;;;12.27;100.00;101551.72;2090478;28;20843;-62
2022/09/20 02:45:31;;;;;;;3.77;2.70;;;;;;;11.46;100.00;101443.03;2090473;28;20431;-62
2022/09/20 02:46:44;;;;;;;3.70;2.70;;;;;;;12.08;100.00;101557.97;2090603;28;20755;-61
2022/09/20 02:47:46;;;;;;;3.10;2.20;;;;;;;12.13;100.00;101565.03;2090475;28;20417;-62
2022/09/20 02:50:56;;;;;;;3.30;2.53;;;;;;;12.19;100.00;101563.38;2090507;28;20399;-61
2022/09/20 02:52:03;;;;;;;3.53;2.60;;;;;;;12.10;100.00;101561.09;2089832;28;20978;-62
2022/09/20 02:53:34;;;;;;;3.30;2.70;;;;;;;12.09;100.00;101561.56;2090427;28;20395;-62
2022/09/20 02:55:13;;;;;;;3.30;2.67;;;;;;;12.15;100.00;101568.97;2097665;28;20473;-62
2022/09/20 02:56:39;;;;;;;3.47;2.70;;;;;;;11.93;100.00;101545.50;2098585;28;20785;-61
2022/09/20 02:57:48;;;;;;;4.30;2.60;;;;;;;12.04;100.00;101557.22;2106335;28;20413;-61
2022/09/20 02:58:58;;;;;;;3.47;2.67;;;;;;;12.04;100.00;101551.69;2105341;28;20408;-61
2022/09/20 03:00:04;;;;;;;2.90;2.37;;;;;;;11.24;100.00;101439.00;2098627;28;20426;-62
2022/09/20 03:01:23;;;;;;;2.90;2.53;;;;;;;12.04;100.00;101551.69;2098586;28;20402;-61
2022/09/20 03:02:44;;;;;;;3.50;2.07;;;;;;;12.01;100.00;101552.53;2098725;28;20960;-62
2022/09/20 03:03:53;;;;;;;3.00;2.43;;;;;;;11.57;100.00;101485.31;2098712;28;20421;-62
2022/09/20 03:05:19;;;;;;;3.93;2.47;;;;;;;12.02;100.00;101562.44;2098738;28;20402;-62
2022/09/20 03:06:23;;;;;;;3.03;2.40;;;;;;;12.02;100.00;101558.84;2098201;28;20512;-61
2022/09/20 03:07:23;;;;;;;3.70;2.50;;;;;;;11.99;100.00;101560.47;2098517;28;20410;-61
2022/09/20 03:08:48;;;;;;;3.00;2.30;;;;;;;12.01;100.00;101566.44;2097891;28;20453;-61
2022/09/20 03:10:00;;;;;;;2.83;2.40;;;;;;;12.05;100.00;101563.59;2098312;28;20168;-61
2022/09/20 03:11:32;;;;;;;3.43;2.33;;;;;;;12.00;100.00;101564.06;2098552;28;20441;-62
2022/09/20 03:12:32;;;;;;;3.30;2.60;;;;;;;12.01;100.00;101560.88;2098050;28;20430;-62
2022/09/20 03:13:41;;;;;;;2.73;2.37;;;;;;;12.01;100.00;101560.88;2098594;28;20431;-61
2022/09/20 03:15:09;;;;;;;3.60;2.50;;;;;;;11.50;100.00;101475.09;2098417;28;20174;-62
2022/09/20 03:16:34;;;;;;;5.60;2.50;;;;;;;12.05;100.00;101564.34;2098407;28;20446;-61
2022/09/20 03:18:10;;;;;;;6.53;2.60;;;;;;;11.19;100.00;101442.22;2098736;28;20836;-62
2022/09/20 03:19:23;;;;;;;4.13;2.83;;;;;;;11.98;100.00;101558.91;2098679;28;20399;-62
2022/09/20 03:20:37;;;;;;;4.13;2.63;;;;;;;11.93;100.00;101567.72;2097455;28;20417;-62
2022/09/20 03:21:51;;;;;;;3.77;2.60;;;;;;;11.97;100.00;101559.34;2090313;28;20440;-62
2022/09/20 03:22:57;;;;;;;2.57;2.20;;;;;;;12.01;100.00;101568.41;2090206;28;20476;-62
2022/09/20 03:24:26;;;;;;;3.40;2.57;;;;;;;11.96;100.00;101555.78;2090112;28;20432;-61
2022/09/20 03:25:48;;;;;;;2.70;2.30;;;;;;;11.88;100.00;101557.09;2090389;28;20453;-62
2022/09/20 03:27:26;;;;;;;3.50;2.27;;;;;;;11.87;100.00;101561.06;2090149;28;20395;-61
2022/09/20 03:29:01;;;;;;;3.07;2.33;;;;;;;11.85;100.00;101565.47;2081755;28;20455;-62
2022/09/20 03:30:26;;;;;;;3.67;2.50;;;;;;;11.95;100.00;101565.31;2090426;28;20489;-61
2022/09/20 03:31:33;;;;;;;2.70;2.10;;;;;;;11.91;100.00;101564.59;2098309;28;20482;-61
2022/09/20 03:33:06;;;;;;;2.90;2.40;;;;;;;11.88;100.00;101561.88;2098483;28;20405;-62
2022/09/20 03:34:26;;;;;;;2.93;1.97;;;;;;;11.94;100.00;101572.06;2098067;28;20525;-63
2022/09/20 03:35:28;;;;;;;2.53;1.80;;;;;;;11.87;100.00;101576.94;2096912;28;20489;-63
2022/09/20 03:36:46;;;;;;;3.00;2.30;;;;;;;11.89;100.00;101566.97;2089867;28;20438;-63
2022/09/20 03:37:55;;;;;;;3.53;2.03;;;;;;;11.88;100.00;101565.41;2081931;28;20403;-63
2022/09/20 03:39:03;;;;;;;3.50;1.93;;;;;;;11.90;100.00;101573.34;2081926;28;20390;-63
2022/09/20 03:40:25;;;;;;;3.00;1.97;;;;;;;11.91;100.00;101564.59;2081779;28;20410;-63
2022/09/20 03:41:52;;;;;;;2.70;2.17;;;;;;;11.64;100.00;101524.13;2081766;28;20419;-63
2022/09/20 03:42:55;;;;;;;3.30;2.00;;;;;;;11.90;100.00;101565.78;2081784;28;20422;-61
2022/09/20 03:43:55;;;;;;;2.20;1.70;;;;;;;11.87;100.00;101566.63;2081745;28;20506;-61
2022/09/20 03:45:14;;;;;;;2.20;2.00;;;;;;;11.90;100.00;101554.69;2081794;28;20415;-62
2022/09/20 03:46:16;;;;;;;2.43;1.80;;;;;;;11.91;100.00;101563.78;2081825;28;20244;-61
2022/09/20 03:47:24;;;;;;;2.50;2.10;;;;;;;11.86;100.00;101558.69;2081729;28;20403;-62
2022/09/20 03:48:31;;;;;;;2.70;1.90;;;;;;;11.87;100.00;101563.84;2081902;28;20414;-62
2022/09/20 03:50:00;;;;;;;2.70;2.00;;;;;;;11.94;100.00;101574.06;2081777;28;20897;-62
2022/09/20 03:51:21;;;;;;;3.47;2.07;;;;;;;12.00;100.00;101564.84;2081821;28;20494;-62
2022/09/20 03:52:40;;;;;;;2.83;1.70;;;;;;;12.01;100.00;101560.88;2081114;28;20410;-62
2022/09/20 03:54:18;;;;;;;2.23;1.73;;;;;;;12.04;100.00;101564.81;2081327;28;20400;-61
2022/09/20 03:55:55;;;;;;;4.03;1.77;;;;;;;12.11;100.00;101561.91;2081835;28;20510;-62
2022/09/20 03:57:43;;;;;;;2.40;1.90;;;;;;;12.03;100.00;101552.09;2081772;28;20430;-62
2022/09/20 03:59:14;;;;;;;2.83;1.70;;;;;;;11.40;100.00;101441.94;2072618;28;20807;-62
2022/09/20 04:00:33;;;;;;;2.13;1.83;;;;;;;12.10;100.00;101557.56;2081630;28;20396;-64
2022/09/20 04:01:36;;;;;;;2.73;1.60;;;;;;;12.08;100.00;101557.19;2096429;28;20410;-62
2022/09/20 04:02:39;;;;;;;2.60;1.60;;;;;;;12.11;100.00;101564.69;2090958;28;20422;-64
2022/09/20 04:04:02;;;;;;;2.87;2.00;;;;;;;11.27;100.00;101433.38;2089792;28;20426;-62
2022/09/20 04:05:09;;;;;;;3.43;1.80;;;;;;;12.17;100.00;101579.66;2087743;28;20827;-63
2022/09/20 04:06:18;;;;;;;2.70;1.83;;;;;;;12.17;100.00;101565.78;2089982;28;20395;-64
2022/09/20 04:07:49;;;;;;;1.83;1.57;;;;;;;12.16;100.00;101570.56;2089899;28;20412;-62
2022/09/20 04:09:00;;;;;;;2.70;1.87;;;;;;;11.74;100.00;101512.84;2089820;28;20793;-63
2022/09/20 04:10:24;;;;;;;2.47;1.70;;;;;;;12.27;100.00;101575.94;2089877;28;20413;-62
2022/09/20 04:11:31;;;;;;;2.27;1.70;;;;;;;12.30;100.00;101584.22;2089975;28;20449;-64
2022/09/20 04:13:01;;;;;;;3.53;1.60;;;;;;;12.42;100.00;101582.84;2089860;28;20426;-61
2022/09/20 04:14:22;;;;;;;2.03;1.63;;;;;;;12.03;100.00;101522.34;2072680;28;20432;-62
2022/09/20 04:15:36;;;;;;;2.00;1.50;;;;;;;12.47;100.00;101585.16;2076527;28;20393;-62
2022/09/20 04:16:45;;;;;;;3.63;1.97;;;;;;;12.50;100.00;101584.31;2089689;28;20842;-64
2022/09/20 04:18:11;;;;;;;2.50;1.63;;;;;;;12.53;100.00;101575.91;2089830;28;20915;-63
2022/09/20 04:19:24;;;;;;;3.27;1.83;;;;;;;12.55;100.00;101584.59;2089835;28;20390;-64
2022/09/20 04:20:47;;;;;;;3.23;1.50;;;;;;;12.54;100.00;101582.25;2089886;28;20394;-62
2022/09/20 04:22:00;;;;;;;2.40;1.60;;;;;;;12.58;100.00;101583.78;2090014;28;20402;-64
2022/09/20 04:23:14;;;;;;;3.23;1.40;;;;;;;12.63;100.00;101583.28;2089699;28;20473;-61
2022/09/20 04:24:22;;;;;;;2.83;1.90;;;;;;;12.57;100.00;101567.50;2089944;28;20474;-61
2022/09/20 04:25:28;;;;;;;2.17;1.67;;;;;;;12.68;100.00;101574.47;2089635;28;20870;-61
2022/09/20 04:26:35;;;;;;;3.00;1.60;;;;;;;12.73;100.00;101581.53;2089672;28;20915;-62
2022/09/20 04:27:45;;;;;;;2.37;1.60;;;;;;;12.33;100.00;101540.91;2089698;28;20395;-61
2022/09/20 04:28:52;;;;;;;3.30;1.57;;;;;;;12.66;100.00;101581.66;2089493;28;20856;-62
2022/09/20 04:30:05;;;;;;;2.93;1.80;;;;;;;12.68;100.00;101584.78;2089623;28;20417;-62
2022/09/20 04:31:22;;;;;;;2.70;1.70;;;;;;;11.89;100.00;101446.78;2089684;28;20799;-61
2022/09/20 04:32:46;;;;;;;2.77;1.90;;;;;;;12.76;100.00;101575.91;2089555;28;20387;-61
2022/09/20 04:33:50;;;;;;;2.10;1.50;;;;;;;12.70;100.00;101574.81;2089720;28;20400;-64
2022/09/20 04:36:56;;;;;;;2.50;1.73;;;;;;;12.72;100.00;101588.31;2080587;28;20925;-62
2022/09/20 04:38:04;;;;;;;2.90;2.10;;;;;;;12.18;100.00;101495.91;2081270;28;20399;-62
2022/09/20 04:39:08;;;;;;;3.17;2.27;;;;;;;12.78;100.00;101589.38;2081181;28;20399;-62
2022/09/20 04:40:55;;;;;;;2.80;1.87;;;;;;;12.15;100.00;101487.63;2081105;28;20507;-61
2022/09/20 04:42:32;;;;;;;2.07;1.50;;;;;;;12.74;100.00;101585.88;2081052;28;20423;-62
2022/09/20 04:43:35;;;;;;;2.97;2.13;;;;;;;12.65;100.00;101586.44;2081109;28;20469;-64
2022/09/20 04:45:04;;;;;;;4.40;1.80;;;;;;;12.60;100.00;101577.81;2081197;28;20419;-64
2022/09/20 04:46:20;;;;;;;3.30;1.70;;;;;;;12.60;100.00;101583.34;2080976;28;20404;-64
2022/09/20 04:47:57;;;;;;;3.30;1.60;;;;;;;12.63;100.00;101588.06;2080997;28;20426;-64
2022/09/20 04:49:19;;;;;;;4.50;2.63;;;;;;;12.70;100.00;101585.19;2084840;28;20409;-62
2022/09/20 04:50:32;;;;;;;2.87;1.80;;;;;;;12.67;100.00;101588.78;2081071;28;20411;-62
2022/09/20 04:51:53;;;;;;;2.07;1.70;;;;;;;12.64;100.00;101589.63;2086275;28;20796;-62
2022/09/20 04:53:27;;;;;;;2.80;2.10;;;;;;;12.65;100.00;101588.44;2080912;28;20447;-62
2022/09/20 04:55:00;;;;;;;3.63;2.50;;;;;;;12.65;100.00;101586.44;2086349;28;20422;-62
2022/09/20 04:56:13;;;;;;;4.83;3.23;;;;;;;12.66;100.00;101596.34;2079448;28;20565;-61
2022/09/20 04:57:35;;;;;;;5.87;4.40;;;;;;;12.64;100.00;101595.97;2088469;28;20771;-62
2022/09/20 04:58:41;;;;;;;4.43;2.80;;;;;;;12.66;100.00;101584.44;2089230;28;20430;-62
2022/09/20 04:59:59;;;;;;;4.80;3.00;;;;;;;12.65;100.00;101592.00;2089239;28;20427;-62
2022/09/20 05:01:18;;;;;;;4.40;3.63;;;;;;;12.71;100.00;101589.53;2089150;28;20411;-62
2022/09/20 05:02:50;;;;;;;5.07;2.50;;;;;;;12.19;100.00;101533.59;2089299;28;20395;-61
2022/09/20 05:04:30;;;;;;;3.43;2.10;;;;;;;12.66;100.00;101601.91;2089399;28;20408;-61
2022/09/20 05:05:57;;;;;;;2.80;2.13;;;;;;;12.64;100.00;101612.66;2088884;28;20938;-61
2022/09/20 05:07:18;;;;;;;3.87;2.00;;;;;;;12.70;100.00;101608.19;2089364;28;20416;-62
2022/09/20 05:08:43;;;;;;;2.90;1.70;;;;;;;12.69;100.00;101603.84;2089355;28;20413;-62
2022/09/20 05:10:06;;;;;;;2.70;1.70;;;;;;;12.68;100.00;101610.63;2089291;28;20939;-62
2022/09/20 05:11:16;;;;;;;2.30;1.43;;;;;;;12.77;100.00;101608.09;2089479;28;20905;-61
2022/09/20 05:12:40;;;;;;;2.90;1.80;;;;;;;12.80;100.00;101612.03;2081121;28;20411;-62
2022/09/20 05:14:11;;;;;;;1.73;1.43;;;;;;;12.87;100.00;101607.09;2081353;28;20466;-61
2022/09/20 05:15:27;;;;;;;3.13;1.53;;;;;;;12.99;100.00;101614.88;2088631;28;20807;-61
2022/09/20 05:16:52;;;;;;;2.70;1.43;;;;;;;12.90;100.00;101611.03;2089248;28;20446;-61
2022/09/20 05:18:09;;;;;;;3.10;1.70;;;;;;;12.96;100.00;101612.94;2089418;28;20395;-61
2022/09/20 05:19:31;;;;;;;5.47;2.40;;;;;;;13.04;100.00;101613.59;2089526;28;20399;-61
2022/09/20 05:21:00;;;;;;;4.40;1.70;;;;;;;13.12;100.00;101620.59;2089500;28;20398;-61
2022/09/20 05:22:06;;;;;;;2.40;1.50;;;;;;;13.24;100.00;101619.97;2081462;28;20777;-61
2022/09/20 05:23:37;;;;;;;2.00;1.50;;;;;;;13.31;100.00;101608.69;2081230;28;20407;-60
2022/09/20 05:24:51;;;;;;;1.97;1.50;;;;;;;13.39;100.00;101612.91;2081273;28;20412;-61
2022/09/20 05:26:19;;;;;;;3.67;1.50;;;;;;;13.51;100.00;101606.69;2081342;28;20395;-60
2022/09/20 05:27:45;;;;;;;3.37;1.80;;;;;;;13.56;100.00;101607.00;2085229;28;20403;-61
2022/09/20 05:29:03;;;;;;;1.70;1.40;;;;;;;13.53;100.00;101593.16;2089284;28;20479;-61
2022/09/20 05:30:09;;;;;;;3.90;1.70;;;;;;;13.71;100.00;101604.69;2089364;28;20457;-61
2022/09/20 05:31:15;;;;;;;2.60;1.70;;;;;;;13.80;100.00;101604.91;2089510;28;20455;-61
2022/09/20 05:32:54;;;;;;;2.43;1.33;;;;;;;13.93;100.00;101605.84;2089483;28;20407;-60
2022/09/20 05:34:13;;;;;;;2.53;1.70;;;;;;;13.97;100.00;101601.75;2088734;28;20834;-60
2022/09/20 05:35:13;;;;;;;2.00;1.50;;;;;;;14.00;100.00;101600.88;2080991;28;20480;-61
2022/09/20 05:36:51;;;;;;;2.60;1.70;;;;;;;14.10;100.00;101602.63;2082526;28;20534;-60
2022/09/20 05:38:17;;;;;;;2.33;1.70;;;;;;;14.28;100.00;101605.84;2093109;28;20184;-61
2022/09/20 05:39:31;;;;;;;1.90;1.40;;;;;;;14.22;100.00;101582.47;2092420;28;20438;-60
2022/09/20 05:40:38;;;;;;;2.93;1.37;;;;;;;14.31;100.00;101593.81;2090506;28;20422;-60
2022/09/20 05:42:06;;;;;;;1.90;1.30;;;;;;;14.37;100.00;101580.91;2090839;28;20422;-61
2022/09/20 05:43:36;;;;;;;2.30;1.47;;;;;;;14.41;100.00;101595.56;2090740;28;20395;-61
2022/09/20 05:44:53;;;;;;;1.50;1.10;;;;;;;14.49;100.00;101588.59;2090312;28;20443;-61
2022/09/20 05:46:21;;;;;;;1.70;1.17;;;;;;;14.53;100.00;101594.06;2090319;28;20423;-60
2022/09/20 05:47:36;;;;;;;2.37;1.67;;;;;;;14.57;100.00;101601.16;2090377;28;20391;-60